sensor_id;sensor_type;location;lat;lon;timestamp;temperature;humidity
12053;DHT22;6087;48.982;12.064;2022-12-29T00:01:08;2.90;1.00
12053;DHT22;6087;48.982;12.064;2022-12-29T00:03:38;2.90;1.00
12053;DHT22;6087;48.982;12.064;2022-12-29T00:06:05;2.90;1.00
12053;DHT22;6087;48.982;12.064;2022-12-29T00:08:32;2.90;1.00
12053;DHT22;6087;48.982;12.064;2022-12-29T00:11:09;2.90;1.00
12053;DHT22;6087;48.982;12.064;2022-12-29T00:13:39;2.90;1.00
12053;DHT22;6087;48.982;12.064;2022-12-29T00:16:23;2.90;1.00
12053;DHT22;6087;48.982;12.064;2022-12-29T00:18:52;2.90;1.00
12053;DHT22;6087;48.982;12.064;2022-12-29T00:21:27;3.00;1.00
12053;DHT22;6087;48.982;12.064;2022-12-29T00:24:13;3.00;1.00
12053;DHT22;6087;48.982;12.064;2022-12-29T00:27:11;3.00;1.00
12053;DHT22;6087;48.982;12.064;2022-12-29T00:29:56;2.90;1.00
12053;DHT22;6087;48.982;12.064;2022-12-29T00:32:51;2.90;1.00
12053;DHT22;6087;48.982;12.064;2022-12-29T00:35:39;2.90;1.00
12053;DHT22;6087;48.982;12.064;2022-12-29T00:38:11;2.90;1.00
12053;DHT22;6087;48.982;12.064;2022-12-29T00:40:58;2.90;1.00
12053;DHT22;6087;48.982;12.064;2022-12-29T00:43:44;2.90;1.00
12053;DHT22;6087;48.982;12.064;2022-12-29T00:46:30;2.90;1.00
12053;DHT22;6087;48.982;12.064;2022-12-29T00:49:00;2.90;1.00
12053;DHT22;6087;48.982;12.064;2022-12-29T00:51:46;2.90;1.00
12053;DHT22;6087;48.982;12.064;2022-12-29T00:54:16;2.90;1.00
12053;DHT22;6087;48.982;12.064;2022-12-29T00:56:45;2.90;1.00
12053;DHT22;6087;48.982;12.064;2022-12-29T00:59:13;2.80;1.00
12053;DHT22;6087;48.982;12.064;2022-12-29T01:01:41;2.90;1.00
12053;DHT22;6087;48.982;12.064;2022-12-29T01:04:09;2.90;1.00
12053;DHT22;6087;48.982;12.064;2022-12-29T01:06:37;2.80;1.00
12053;DHT22;6087;48.982;12.064;2022-12-29T01:09:12;2.80;1.00
12053;DHT22;6087;48.982;12.064;2022-12-29T01:11:56;2.80;1.00
12053;DHT22;6087;48.982;12.064;2022-12-29T01:14:23;2.80;1.00
12053;DHT22;6087;48.982;12.064;2022-12-29T01:16:51;2.80;1.00
12053;DHT22;6087;48.982;12.064;2022-12-29T01:19:19;2.80;1.00
12053;DHT22;6087;48.982;12.064;2022-12-29T01:21:47;2.80;1.00
12053;DHT22;6087;48.982;12.064;2022-12-29T01:24:16;2.80;1.00
12053;DHT22;6087;48.982;12.064;2022-12-29T01:26:44;2.80;1.00
12053;DHT22;6087;48.982;12.064;2022-12-29T01:29:11;2.80;1.00
12053;DHT22;6087;48.982;12.064;2022-12-29T01:31:39;2.80;1.00
12053;DHT22;6087;48.982;12.064;2022-12-29T01:34:06;2.80;1.00
12053;DHT22;6087;48.982;12.064;2022-12-29T01:36:35;2.80;1.00
12053;DHT22;6087;48.982;12.064;2022-12-29T01:39:03;2.80;1.00
12053;DHT22;6087;48.982;12.064;2022-12-29T01:41:38;2.80;1.00
12053;DHT22;6087;48.982;12.064;2022-12-29T01:44:47;2.80;1.00
12053;DHT22;6087;48.982;12.064;2022-12-29T01:47:29;2.80;1.00
12053;DHT22;6087;48.982;12.064;2022-12-29T01:50:00;2.70;1.00
12053;DHT22;6087;48.982;12.064;2022-12-29T01:52:31;2.80;1.00
12053;DHT22;6087;48.982;12.064;2022-12-29T01:55:00;2.80;1.00
12053;DHT22;6087;48.982;12.064;2022-12-29T01:57:40;2.70;1.00
12053;DHT22;6087;48.982;12.064;2022-12-29T02:00:17;2.80;1.00
12053;DHT22;6087;48.982;12.064;2022-12-29T02:02:47;2.80;1.00
12053;DHT22;6087;48.982;12.064;2022-12-29T02:05:23;2.80;1.00
12053;DHT22;6087;48.982;12.064;2022-12-29T02:07:53;2.80;1.00
12053;DHT22;6087;48.982;12.064;2022-12-29T02:10:21;2.80;1.00
12053;DHT22;6087;48.982;12.064;2022-12-29T02:12:55;2.80;1.00
12053;DHT22;6087;48.982;12.064;2022-12-29T02:15:34;2.80;1.00
12053;DHT22;6087;48.982;12.064;2022-12-29T02:18:23;2.80;1.00
12053;DHT22;6087;48.982;12.064;2022-12-29T02:30:38;2.80;1.00
12053;DHT22;6087;48.982;12.064;2022-12-29T02:33:18;2.80;1.00
12053;DHT22;6087;48.982;12.064;2022-12-29T02:36:08;2.70;1.00
12053;DHT22;6087;48.982;12.064;2022-12-29T02:38:48;2.70;1.00
12053;DHT22;6087;48.982;12.064;2022-12-29T02:41:21;2.80;1.00
12053;DHT22;6087;48.982;12.064;2022-12-29T02:43:55;2.80;1.00
12053;DHT22;6087;48.982;12.064;2022-12-29T02:46:33;2.80;1.00
12053;DHT22;6087;48.982;12.064;2022-12-29T02:49:08;2.80;1.00
12053;DHT22;6087;48.982;12.064;2022-12-29T02:51:40;2.80;1.00
12053;DHT22;6087;48.982;12.064;2022-12-29T02:54:10;2.70;1.00
12053;DHT22;6087;48.982;12.064;2022-12-29T02:56:57;2.70;1.00
12053;DHT22;6087;48.982;12.064;2022-12-29T02:59:26;2.80;1.00
12053;DHT22;6087;48.982;12.064;2022-12-29T03:02:15;2.80;1.00
12053;DHT22;6087;48.982;12.064;2022-12-29T03:04:58;2.70;1.00
12053;DHT22;6087;48.982;12.064;2022-12-29T03:07:38;2.70;1.00
12053;DHT22;6087;48.982;12.064;2022-12-29T03:10:16;2.70;1.00
12053;DHT22;6087;48.982;12.064;2022-12-29T03:12:52;2.70;1.00
12053;DHT22;6087;48.982;12.064;2022-12-29T03:15:43;2.70;1.00
12053;DHT22;6087;48.982;12.064;2022-12-29T03:18:35;2.70;1.00
12053;DHT22;6087;48.982;12.064;2022-12-29T03:21:08;2.70;1.00
12053;DHT22;6087;48.982;12.064;2022-12-29T03:23:39;2.80;1.00
12053;DHT22;6087;48.982;12.064;2022-12-29T03:26:10;2.80;1.00
12053;DHT22;6087;48.982;12.064;2022-12-29T03:28:40;2.80;1.00
12053;DHT22;6087;48.982;12.064;2022-12-29T03:31:13;2.80;1.00
12053;DHT22;6087;48.982;12.064;2022-12-29T03:33:52;2.80;1.00
12053;DHT22;6087;48.982;12.064;2022-12-29T03:36:26;2.80;99.90
12053;DHT22;6087;48.982;12.064;2022-12-29T03:38:59;2.80;1.00
12053;DHT22;6087;48.982;12.064;2022-12-29T03:41:31;2.80;1.00
12053;DHT22;6087;48.982;12.064;2022-12-29T03:44:02;2.80;1.00
12053;DHT22;6087;48.982;12.064;2022-12-29T03:46:32;2.80;1.00
12053;DHT22;6087;48.982;12.064;2022-12-29T03:49:00;2.80;1.00
12053;DHT22;6087;48.982;12.064;2022-12-29T03:51:27;2.80;1.00
12053;DHT22;6087;48.982;12.064;2022-12-29T03:53:59;2.80;1.00
12053;DHT22;6087;48.982;12.064;2022-12-29T03:56:26;2.80;1.00
12053;DHT22;6087;48.982;12.064;2022-12-29T03:58:53;2.80;1.00
12053;DHT22;6087;48.982;12.064;2022-12-29T04:01:20;2.80;1.00
12053;DHT22;6087;48.982;12.064;2022-12-29T04:03:49;2.80;1.00
12053;DHT22;6087;48.982;12.064;2022-12-29T04:06:22;2.80;1.00
12053;DHT22;6087;48.982;12.064;2022-12-29T04:08:49;2.80;1.00
12053;DHT22;6087;48.982;12.064;2022-12-29T04:11:16;2.90;99.90
12053;DHT22;6087;48.982;12.064;2022-12-29T04:13:43;2.90;99.90
12053;DHT22;6087;48.982;12.064;2022-12-29T04:16:10;2.90;99.90
12053;DHT22;6087;48.982;12.064;2022-12-29T04:18:37;2.90;99.90
12053;DHT22;6087;48.982;12.064;2022-12-29T04:21:05;2.90;99.90
12053;DHT22;6087;48.982;12.064;2022-12-29T04:23:35;2.90;99.90
12053;DHT22;6087;48.982;12.064;2022-12-29T04:26:03;2.90;99.90
12053;DHT22;6087;48.982;12.064;2022-12-29T04:28:31;2.90;99.90
12053;DHT22;6087;48.982;12.064;2022-12-29T04:30:59;2.90;99.90
12053;DHT22;6087;48.982;12.064;2022-12-29T04:33:26;2.90;99.90
12053;DHT22;6087;48.982;12.064;2022-12-29T04:35:53;2.90;99.90
12053;DHT22;6087;48.982;12.064;2022-12-29T04:38:22;2.80;99.90
12053;DHT22;6087;48.982;12.064;2022-12-29T04:40:51;2.90;99.90
12053;DHT22;6087;48.982;12.064;2022-12-29T04:43:18;2.80;99.90
12053;DHT22;6087;48.982;12.064;2022-12-29T04:45:47;2.80;99.90
12053;DHT22;6087;48.982;12.064;2022-12-29T04:48:14;2.80;99.90
12053;DHT22;6087;48.982;12.064;2022-12-29T04:50:41;2.80;99.90
12053;DHT22;6087;48.982;12.064;2022-12-29T04:53:09;2.80;99.90
12053;DHT22;6087;48.982;12.064;2022-12-29T04:55:36;2.80;99.90
12053;DHT22;6087;48.982;12.064;2022-12-29T04:58:06;2.80;99.90
12053;DHT22;6087;48.982;12.064;2022-12-29T05:00:33;2.80;99.90
12053;DHT22;6087;48.982;12.064;2022-12-29T05:03:00;2.80;99.90
12053;DHT22;6087;48.982;12.064;2022-12-29T05:05:27;2.80;1.00
12053;DHT22;6087;48.982;12.064;2022-12-29T05:07:54;2.80;1.00
12053;DHT22;6087;48.982;12.064;2022-12-29T05:10:21;2.80;1.00
12053;DHT22;6087;48.982;12.064;2022-12-29T05:12:48;2.80;1.00
12053;DHT22;6087;48.982;12.064;2022-12-29T05:15:16;2.80;1.00
12053;DHT22;6087;48.982;12.064;2022-12-29T05:17:44;2.80;1.00
12053;DHT22;6087;48.982;12.064;2022-12-29T05:20:11;2.90;1.00
12053;DHT22;6087;48.982;12.064;2022-12-29T05:22:38;2.90;1.00
12053;DHT22;6087;48.982;12.064;2022-12-29T05:25:06;2.90;1.00
12053;DHT22;6087;48.982;12.064;2022-12-29T05:27:33;2.90;1.00
12053;DHT22;6087;48.982;12.064;2022-12-29T05:30:00;2.90;1.00
12053;DHT22;6087;48.982;12.064;2022-12-29T05:32:28;2.90;1.00
12053;DHT22;6087;48.982;12.064;2022-12-29T05:34:55;2.90;1.00
12053;DHT22;6087;48.982;12.064;2022-12-29T05:37:24;2.80;1.00
12053;DHT22;6087;48.982;12.064;2022-12-29T05:39:51;2.80;1.00
12053;DHT22;6087;48.982;12.064;2022-12-29T05:42:18;2.80;1.00
12053;DHT22;6087;48.982;12.064;2022-12-29T05:44:45;2.80;1.00
12053;DHT22;6087;48.982;12.064;2022-12-29T05:47:12;2.80;1.00
12053;DHT22;6087;48.982;12.064;2022-12-29T05:49:40;2.80;1.00
12053;DHT22;6087;48.982;12.064;2022-12-29T05:52:07;2.80;1.00
12053;DHT22;6087;48.982;12.064;2022-12-29T05:54:34;2.80;1.00
12053;DHT22;6087;48.982;12.064;2022-12-29T05:57:01;2.80;1.00
12053;DHT22;6087;48.982;12.064;2022-12-29T05:59:28;2.80;1.00
12053;DHT22;6087;48.982;12.064;2022-12-29T06:01:55;2.80;1.00
12053;DHT22;6087;48.982;12.064;2022-12-29T06:04:22;2.80;1.00
12053;DHT22;6087;48.982;12.064;2022-12-29T06:06:51;2.80;1.00
12053;DHT22;6087;48.982;12.064;2022-12-29T06:09:18;2.80;1.00
12053;DHT22;6087;48.982;12.064;2022-12-29T06:11:45;2.70;1.00
12053;DHT22;6087;48.982;12.064;2022-12-29T06:14:12;2.80;1.00
12053;DHT22;6087;48.982;12.064;2022-12-29T06:16:39;2.80;1.00
12053;DHT22;6087;48.982;12.064;2022-12-29T06:19:07;2.80;1.00
12053;DHT22;6087;48.982;12.064;2022-12-29T06:21:36;2.80;1.00
12053;DHT22;6087;48.982;12.064;2022-12-29T06:24:05;2.80;1.00
12053;DHT22;6087;48.982;12.064;2022-12-29T06:26:32;2.80;1.00
12053;DHT22;6087;48.982;12.064;2022-12-29T06:29:02;2.80;1.00
12053;DHT22;6087;48.982;12.064;2022-12-29T06:31:32;2.80;1.00
12053;DHT22;6087;48.982;12.064;2022-12-29T06:33:59;2.80;1.00
12053;DHT22;6087;48.982;12.064;2022-12-29T06:36:26;2.80;1.00
12053;DHT22;6087;48.982;12.064;2022-12-29T06:38:53;2.80;1.00
12053;DHT22;6087;48.982;12.064;2022-12-29T06:41:21;2.80;1.00
12053;DHT22;6087;48.982;12.064;2022-12-29T06:43:48;2.80;1.00
12053;DHT22;6087;48.982;12.064;2022-12-29T06:46:15;2.80;1.00
12053;DHT22;6087;48.982;12.064;2022-12-29T06:48:42;2.90;1.00
12053;DHT22;6087;48.982;12.064;2022-12-29T06:51:09;2.80;1.00
12053;DHT22;6087;48.982;12.064;2022-12-29T06:53:36;2.80;1.00
12053;DHT22;6087;48.982;12.064;2022-12-29T06:56:04;2.80;1.00
12053;DHT22;6087;48.982;12.064;2022-12-29T06:58:32;2.80;1.00
12053;DHT22;6087;48.982;12.064;2022-12-29T07:00:59;2.80;1.00
12053;DHT22;6087;48.982;12.064;2022-12-29T07:03:26;2.80;1.00
12053;DHT22;6087;48.982;12.064;2022-12-29T07:05:53;2.80;1.00
12053;DHT22;6087;48.982;12.064;2022-12-29T07:08:21;2.80;1.00
12053;DHT22;6087;48.982;12.064;2022-12-29T07:10:48;2.80;1.00
12053;DHT22;6087;48.982;12.064;2022-12-29T07:13:15;2.80;1.00
12053;DHT22;6087;48.982;12.064;2022-12-29T07:15:43;2.80;1.00
12053;DHT22;6087;48.982;12.064;2022-12-29T07:18:10;2.80;1.00
12053;DHT22;6087;48.982;12.064;2022-12-29T07:20:37;2.70;1.00
12053;DHT22;6087;48.982;12.064;2022-12-29T07:23:04;2.70;1.00
12053;DHT22;6087;48.982;12.064;2022-12-29T07:25:31;2.70;1.00
12053;DHT22;6087;48.982;12.064;2022-12-29T07:27:58;2.70;1.00
12053;DHT22;6087;48.982;12.064;2022-12-29T07:30:25;2.70;1.00
12053;DHT22;6087;48.982;12.064;2022-12-29T07:32:53;2.70;1.00
12053;DHT22;6087;48.982;12.064;2022-12-29T07:35:20;2.70;1.00
12053;DHT22;6087;48.982;12.064;2022-12-29T07:37:47;2.70;1.00
12053;DHT22;6087;48.982;12.064;2022-12-29T07:40:15;2.80;1.00
12053;DHT22;6087;48.982;12.064;2022-12-29T07:42:42;2.80;1.00
12053;DHT22;6087;48.982;12.064;2022-12-29T07:45:11;2.80;1.00
12053;DHT22;6087;48.982;12.064;2022-12-29T07:47:38;2.80;1.00
12053;DHT22;6087;48.982;12.064;2022-12-29T07:50:07;2.80;1.00
12053;DHT22;6087;48.982;12.064;2022-12-29T07:52:34;2.80;1.00
12053;DHT22;6087;48.982;12.064;2022-12-29T07:55:01;2.80;1.00
12053;DHT22;6087;48.982;12.064;2022-12-29T07:57:28;2.80;1.00
12053;DHT22;6087;48.982;12.064;2022-12-29T07:59:55;2.80;1.00
12053;DHT22;6087;48.982;12.064;2022-12-29T08:02:22;2.80;99.90
12053;DHT22;6087;48.982;12.064;2022-12-29T08:04:51;2.90;1.00
12053;DHT22;6087;48.982;12.064;2022-12-29T08:07:20;2.90;1.00
12053;DHT22;6087;48.982;12.064;2022-12-29T08:09:47;2.90;1.00
12053;DHT22;6087;48.982;12.064;2022-12-29T08:12:17;2.90;1.00
12053;DHT22;6087;48.982;12.064;2022-12-29T08:14:47;3.00;1.00
12053;DHT22;6087;48.982;12.064;2022-12-29T08:17:17;3.00;1.00
12053;DHT22;6087;48.982;12.064;2022-12-29T08:19:44;3.10;1.00
12053;DHT22;6087;48.982;12.064;2022-12-29T08:22:11;3.10;99.90
12053;DHT22;6087;48.982;12.064;2022-12-29T08:24:42;3.20;99.90
12053;DHT22;6087;48.982;12.064;2022-12-29T08:27:09;3.20;99.90
12053;DHT22;6087;48.982;12.064;2022-12-29T08:29:36;3.30;99.90
12053;DHT22;6087;48.982;12.064;2022-12-29T08:32:03;3.30;99.90
12053;DHT22;6087;48.982;12.064;2022-12-29T08:34:31;3.30;99.90
12053;DHT22;6087;48.982;12.064;2022-12-29T08:37:02;3.40;99.90
12053;DHT22;6087;48.982;12.064;2022-12-29T08:39:29;3.40;99.90
12053;DHT22;6087;48.982;12.064;2022-12-29T08:41:57;3.40;1.00
12053;DHT22;6087;48.982;12.064;2022-12-29T08:44:30;3.50;99.90
12053;DHT22;6087;48.982;12.064;2022-12-29T08:46:57;3.50;93.10
12053;DHT22;6087;48.982;12.064;2022-12-29T08:49:24;3.50;1.00
12053;DHT22;6087;48.982;12.064;2022-12-29T08:51:51;3.50;1.00
12053;DHT22;6087;48.982;12.064;2022-12-29T08:54:18;3.60;1.00
12053;DHT22;6087;48.982;12.064;2022-12-29T08:56:45;3.70;1.00
12053;DHT22;6087;48.982;12.064;2022-12-29T08:59:13;3.70;1.00
12053;DHT22;6087;48.982;12.064;2022-12-29T09:01:41;3.80;1.00
12053;DHT22;6087;48.982;12.064;2022-12-29T09:04:08;3.80;1.00
12053;DHT22;6087;48.982;12.064;2022-12-29T09:06:35;3.80;1.00
12053;DHT22;6087;48.982;12.064;2022-12-29T09:09:02;3.80;1.00
12053;DHT22;6087;48.982;12.064;2022-12-29T09:11:29;3.90;99.90
12053;DHT22;6087;48.982;12.064;2022-12-29T09:13:56;3.90;1.00
12053;DHT22;6087;48.982;12.064;2022-12-29T09:16:25;3.90;1.00
12053;DHT22;6087;48.982;12.064;2022-12-29T09:18:52;4.00;1.00
12053;DHT22;6087;48.982;12.064;2022-12-29T09:21:19;4.00;1.00
12053;DHT22;6087;48.982;12.064;2022-12-29T09:23:47;4.00;99.90
12053;DHT22;6087;48.982;12.064;2022-12-29T09:26:15;4.00;99.90
12053;DHT22;6087;48.982;12.064;2022-12-29T09:28:42;4.10;99.90
12053;DHT22;6087;48.982;12.064;2022-12-29T09:31:09;4.10;99.90
12053;DHT22;6087;48.982;12.064;2022-12-29T09:33:38;4.10;99.90
12053;DHT22;6087;48.982;12.064;2022-12-29T09:36:06;4.10;1.00
12053;DHT22;6087;48.982;12.064;2022-12-29T09:38:33;4.20;99.90
12053;DHT22;6087;48.982;12.064;2022-12-29T09:41:04;4.20;99.90
12053;DHT22;6087;48.982;12.064;2022-12-29T09:43:53;4.30;99.70
12053;DHT22;6087;48.982;12.064;2022-12-29T09:46:25;4.30;1.00
12053;DHT22;6087;48.982;12.064;2022-12-29T09:49:03;4.40;1.00
12053;DHT22;6087;48.982;12.064;2022-12-29T09:51:36;4.40;1.00
12053;DHT22;6087;48.982;12.064;2022-12-29T09:54:23;4.50;1.00
12053;DHT22;6087;48.982;12.064;2022-12-29T09:56:52;4.50;1.00
12053;DHT22;6087;48.982;12.064;2022-12-29T09:59:22;4.50;1.00
12053;DHT22;6087;48.982;12.064;2022-12-29T10:01:55;4.60;1.00
12053;DHT22;6087;48.982;12.064;2022-12-29T10:04:27;4.70;1.00
12053;DHT22;6087;48.982;12.064;2022-12-29T10:06:59;4.70;1.00
12053;DHT22;6087;48.982;12.064;2022-12-29T10:09:33;4.80;1.00
12053;DHT22;6087;48.982;12.064;2022-12-29T10:12:10;4.80;1.00
12053;DHT22;6087;48.982;12.064;2022-12-29T10:14:53;4.90;1.00
12053;DHT22;6087;48.982;12.064;2022-12-29T10:17:33;4.90;99.90
12053;DHT22;6087;48.982;12.064;2022-12-29T10:20:29;5.00;1.00
12053;DHT22;6087;48.982;12.064;2022-12-29T10:23:09;5.10;1.00
12053;DHT22;6087;48.982;12.064;2022-12-29T10:25:40;5.10;1.00
12053;DHT22;6087;48.982;12.064;2022-12-29T10:28:16;5.10;1.00
12053;DHT22;6087;48.982;12.064;2022-12-29T10:30:46;5.20;99.90
12053;DHT22;6087;48.982;12.064;2022-12-29T10:33:17;5.20;99.90
12053;DHT22;6087;48.982;12.064;2022-12-29T10:35:47;5.30;1.00
12053;DHT22;6087;48.982;12.064;2022-12-29T10:38:22;5.30;52.60
12053;DHT22;6087;48.982;12.064;2022-12-29T10:40:54;5.30;53.30
12053;DHT22;6087;48.982;12.064;2022-12-29T10:43:27;5.30;1.00
12053;DHT22;6087;48.982;12.064;2022-12-29T10:45:58;5.30;1.00
12053;DHT22;6087;48.982;12.064;2022-12-29T10:48:31;5.40;94.00
12053;DHT22;6087;48.982;12.064;2022-12-29T10:51:02;5.40;99.90
12053;DHT22;6087;48.982;12.064;2022-12-29T10:53:35;5.50;1.00
12053;DHT22;6087;48.982;12.064;2022-12-29T10:56:12;5.50;99.90
12053;DHT22;6087;48.982;12.064;2022-12-29T10:58:42;5.60;99.90
12053;DHT22;6087;48.982;12.064;2022-12-29T11:01:12;5.70;1.00
12053;DHT22;6087;48.982;12.064;2022-12-29T11:03:50;5.70;1.00
12053;DHT22;6087;48.982;12.064;2022-12-29T11:06:28;5.80;1.00
12053;DHT22;6087;48.982;12.064;2022-12-29T11:09:02;5.80;54.30
12053;DHT22;6087;48.982;12.064;2022-12-29T11:11:36;5.90;99.80
12053;DHT22;6087;48.982;12.064;2022-12-29T11:14:11;6.00;16.10
12053;DHT22;6087;48.982;12.064;2022-12-29T11:16:39;6.00;99.90
12053;DHT22;6087;48.982;12.064;2022-12-29T11:19:20;6.10;8.20
12053;DHT22;6087;48.982;12.064;2022-12-29T11:21:49;6.10;1.00
12053;DHT22;6087;48.982;12.064;2022-12-29T11:24:22;6.20;61.60
12053;DHT22;6087;48.982;12.064;2022-12-29T11:26:50;6.30;99.90
12053;DHT22;6087;48.982;12.064;2022-12-29T11:29:25;6.30;1.00
12053;DHT22;6087;48.982;12.064;2022-12-29T11:31:53;6.30;39.60
12053;DHT22;6087;48.982;12.064;2022-12-29T11:34:22;6.40;1.00
12053;DHT22;6087;48.982;12.064;2022-12-29T11:36:54;6.40;1.00
12053;DHT22;6087;48.982;12.064;2022-12-29T11:39:35;6.50;99.90
12053;DHT22;6087;48.982;12.064;2022-12-29T11:42:03;6.60;99.90
12053;DHT22;6087;48.982;12.064;2022-12-29T11:44:37;6.70;99.90
12053;DHT22;6087;48.982;12.064;2022-12-29T11:47:13;6.80;99.90
12053;DHT22;6087;48.982;12.064;2022-12-29T11:49:49;7.00;99.90
12053;DHT22;6087;48.982;12.064;2022-12-29T11:52:22;7.10;99.90
12053;DHT22;6087;48.982;12.064;2022-12-29T11:54:50;7.20;99.90
12053;DHT22;6087;48.982;12.064;2022-12-29T11:57:19;7.40;95.10
12053;DHT22;6087;48.982;12.064;2022-12-29T11:59:50;7.50;99.90
12053;DHT22;6087;48.982;12.064;2022-12-29T12:05:33;7.90;1.00
12053;DHT22;6087;48.982;12.064;2022-12-29T12:08:10;8.20;99.90
12053;DHT22;6087;48.982;12.064;2022-12-29T12:10:46;8.60;99.90
12053;DHT22;6087;48.982;12.064;2022-12-29T12:13:23;9.10;99.90
12053;DHT22;6087;48.982;12.064;2022-12-29T12:15:59;9.90;99.90
12053;DHT22;6087;48.982;12.064;2022-12-29T12:18:40;10.60;99.90
12053;DHT22;6087;48.982;12.064;2022-12-29T12:21:14;11.00;1.00
12053;DHT22;6087;48.982;12.064;2022-12-29T12:24:08;11.70;1.00
12053;DHT22;6087;48.982;12.064;2022-12-29T12:26:53;11.90;3.00
12053;DHT22;6087;48.982;12.064;2022-12-29T12:29:25;11.80;1.00
12053;DHT22;6087;48.982;12.064;2022-12-29T12:31:59;11.50;14.00
12053;DHT22;6087;48.982;12.064;2022-12-29T12:34:32;11.20;1.00
12053;DHT22;6087;48.982;12.064;2022-12-29T12:37:18;10.90;1.00
12053;DHT22;6087;48.982;12.064;2022-12-29T12:40:07;10.60;1.00
12053;DHT22;6087;48.982;12.064;2022-12-29T12:42:47;10.50;1.00
12053;DHT22;6087;48.982;12.064;2022-12-29T12:45:43;10.30;1.00
12053;DHT22;6087;48.982;12.064;2022-12-29T12:48:34;10.20;1.00
12053;DHT22;6087;48.982;12.064;2022-12-29T12:51:17;10.10;1.00
12053;DHT22;6087;48.982;12.064;2022-12-29T12:53:57;10.00;1.00
12053;DHT22;6087;48.982;12.064;2022-12-29T12:56:46;10.00;1.00
12053;DHT22;6087;48.982;12.064;2022-12-29T12:59:34;10.00;1.00
12053;DHT22;6087;48.982;12.064;2022-12-29T13:05:21;10.00;1.00
12053;DHT22;6087;48.982;12.064;2022-12-29T13:07:59;10.00;1.00
12053;DHT22;6087;48.982;12.064;2022-12-29T13:10:41;9.90;1.00
12053;DHT22;6087;48.982;12.064;2022-12-29T13:13:32;9.90;1.00
12053;DHT22;6087;48.982;12.064;2022-12-29T13:16:09;9.90;1.00
12053;DHT22;6087;48.982;12.064;2022-12-29T13:18:46;9.90;1.00
12053;DHT22;6087;48.982;12.064;2022-12-29T13:21:24;9.90;1.00
12053;DHT22;6087;48.982;12.064;2022-12-29T13:23:58;9.90;1.00
12053;DHT22;6087;48.982;12.064;2022-12-29T13:26:33;9.90;1.00
12053;DHT22;6087;48.982;12.064;2022-12-29T13:29:27;10.20;1.00
12053;DHT22;6087;48.982;12.064;2022-12-29T13:32:11;11.40;1.00
12053;DHT22;6087;48.982;12.064;2022-12-29T13:34:52;12.20;1.00
12053;DHT22;6087;48.982;12.064;2022-12-29T13:37:32;12.30;1.00
12053;DHT22;6087;48.982;12.064;2022-12-29T13:40:14;12.10;1.00
12053;DHT22;6087;48.982;12.064;2022-12-29T13:42:43;11.80;1.00
12053;DHT22;6087;48.982;12.064;2022-12-29T13:45:20;11.50;1.00
12053;DHT22;6087;48.982;12.064;2022-12-29T13:47:54;11.30;1.00
12053;DHT22;6087;48.982;12.064;2022-12-29T13:50:38;11.10;1.00
12053;DHT22;6087;48.982;12.064;2022-12-29T13:53:33;10.90;1.00
12053;DHT22;6087;48.982;12.064;2022-12-29T13:56:14;10.80;1.00
12053;DHT22;6087;48.982;12.064;2022-12-29T13:58:59;10.80;1.00
12053;DHT22;6087;48.982;12.064;2022-12-29T14:01:35;10.70;1.00
12053;DHT22;6087;48.982;12.064;2022-12-29T14:04:12;10.60;1.00
12053;DHT22;6087;48.982;12.064;2022-12-29T14:06:50;10.60;1.00
12053;DHT22;6087;48.982;12.064;2022-12-29T14:09:45;10.50;1.00
12053;DHT22;6087;48.982;12.064;2022-12-29T14:12:39;10.50;1.00
12053;DHT22;6087;48.982;12.064;2022-12-29T14:15:25;10.40;1.00
12053;DHT22;6087;48.982;12.064;2022-12-29T14:18:12;10.40;1.00
12053;DHT22;6087;48.982;12.064;2022-12-29T14:20:59;10.40;1.00
12053;DHT22;6087;48.982;12.064;2022-12-29T14:23:49;10.40;1.00
12053;DHT22;6087;48.982;12.064;2022-12-29T14:26:43;10.30;1.00
12053;DHT22;6087;48.982;12.064;2022-12-29T14:29:47;10.30;1.00
12053;DHT22;6087;48.982;12.064;2022-12-29T14:32:36;10.30;1.00
12053;DHT22;6087;48.982;12.064;2022-12-29T14:35:40;10.30;1.00
12053;DHT22;6087;48.982;12.064;2022-12-29T14:38:44;10.30;1.00
12053;DHT22;6087;48.982;12.064;2022-12-29T14:41:38;10.20;1.00
12053;DHT22;6087;48.982;12.064;2022-12-29T14:46:29;10.20;1.00
12053;DHT22;6087;48.982;12.064;2022-12-29T14:47:31;10.20;1.00
12053;DHT22;6087;48.982;12.064;2022-12-29T14:50:22;10.10;1.00
12053;DHT22;6087;48.982;12.064;2022-12-29T14:53:00;10.10;1.00
12053;DHT22;6087;48.982;12.064;2022-12-29T14:55:53;10.10;1.00
12053;DHT22;6087;48.982;12.064;2022-12-29T14:58:51;10.10;1.00
12053;DHT22;6087;48.982;12.064;2022-12-29T15:01:34;10.10;1.00
12053;DHT22;6087;48.982;12.064;2022-12-29T15:04:45;10.10;1.00
12053;DHT22;6087;48.982;12.064;2022-12-29T15:07:19;10.10;1.00
12053;DHT22;6087;48.982;12.064;2022-12-29T15:10:00;10.10;1.00
12053;DHT22;6087;48.982;12.064;2022-12-29T15:12:36;10.00;1.00
12053;DHT22;6087;48.982;12.064;2022-12-29T15:15:19;10.00;1.00
12053;DHT22;6087;48.982;12.064;2022-12-29T15:17:56;10.00;1.00
12053;DHT22;6087;48.982;12.064;2022-12-29T15:20:58;9.90;1.00
12053;DHT22;6087;48.982;12.064;2022-12-29T15:23:33;9.90;1.00
12053;DHT22;6087;48.982;12.064;2022-12-29T15:26:04;9.90;1.00
12053;DHT22;6087;48.982;12.064;2022-12-29T15:28:40;9.90;1.00
12053;DHT22;6087;48.982;12.064;2022-12-29T15:31:12;9.90;1.00
12053;DHT22;6087;48.982;12.064;2022-12-29T15:33:42;9.90;1.00
12053;DHT22;6087;48.982;12.064;2022-12-29T15:36:20;9.90;1.00
12053;DHT22;6087;48.982;12.064;2022-12-29T15:38:49;9.80;1.00
12053;DHT22;6087;48.982;12.064;2022-12-29T15:41:25;9.80;1.00
12053;DHT22;6087;48.982;12.064;2022-12-29T15:44:03;9.80;1.00
12053;DHT22;6087;48.982;12.064;2022-12-29T15:46:33;9.80;1.00
12053;DHT22;6087;48.982;12.064;2022-12-29T15:49:05;9.80;1.00
12053;DHT22;6087;48.982;12.064;2022-12-29T15:51:37;9.90;1.00
12053;DHT22;6087;48.982;12.064;2022-12-29T15:54:05;9.90;1.00
12053;DHT22;6087;48.982;12.064;2022-12-29T15:56:37;9.90;1.00
12053;DHT22;6087;48.982;12.064;2022-12-29T15:59:04;9.90;1.00
12053;DHT22;6087;48.982;12.064;2022-12-29T16:01:32;9.80;1.00
12053;DHT22;6087;48.982;12.064;2022-12-29T16:04:03;9.80;1.00
12053;DHT22;6087;48.982;12.064;2022-12-29T16:06:32;9.80;4.80
12053;DHT22;6087;48.982;12.064;2022-12-29T16:09:02;9.80;8.80
12053;DHT22;6087;48.982;12.064;2022-12-29T16:11:37;9.70;51.50
12053;DHT22;6087;48.982;12.064;2022-12-29T16:14:08;9.70;63.60
12053;DHT22;6087;48.982;12.064;2022-12-29T16:16:43;9.70;87.20
12053;DHT22;6087;48.982;12.064;2022-12-29T16:19:19;9.70;94.10
12053;DHT22;6087;48.982;12.064;2022-12-29T16:22:01;9.70;99.90
12053;DHT22;6087;48.982;12.064;2022-12-29T16:24:31;9.60;99.90
12053;DHT22;6087;48.982;12.064;2022-12-29T16:27:10;9.60;99.90
12053;DHT22;6087;48.982;12.064;2022-12-29T16:29:41;9.60;99.90
12053;DHT22;6087;48.982;12.064;2022-12-29T16:32:24;9.60;99.90
12053;DHT22;6087;48.982;12.064;2022-12-29T16:35:09;9.60;99.90
12053;DHT22;6087;48.982;12.064;2022-12-29T16:37:37;9.50;99.90
12053;DHT22;6087;48.982;12.064;2022-12-29T16:40:29;9.50;99.90
12053;DHT22;6087;48.982;12.064;2022-12-29T16:42:59;9.50;99.90
12053;DHT22;6087;48.982;12.064;2022-12-29T16:48:47;9.50;99.90
12053;DHT22;6087;48.982;12.064;2022-12-29T16:51:17;9.40;99.90
12053;DHT22;6087;48.982;12.064;2022-12-29T16:53:49;9.40;99.90
12053;DHT22;6087;48.982;12.064;2022-12-29T16:56:22;9.40;99.90